createdAt,value
2022-11-14T00:00:56.699Z,14.96
2022-11-14T00:03:23.379Z,15.02
2022-11-14T00:05:50.113Z,15.10
2022-11-14T00:08:20.330Z,15.15
2022-11-14T00:10:48.664Z,15.20
2022-11-14T00:13:16.375Z,15.21
2022-11-14T00:15:46.059Z,15.21
2022-11-14T00:18:12.895Z,15.15
2022-11-14T00:20:39.703Z,15.24
2022-11-14T00:23:06.460Z,15.24
2022-11-14T00:25:33.255Z,15.28
2022-11-14T00:28:00.147Z,15.31
2022-11-14T00:30:28.779Z,15.29
2022-11-14T00:32:55.506Z,15.39
2022-11-14T00:35:22.459Z,15.39
2022-11-14T00:37:49.281Z,15.34
2022-11-14T00:40:16.386Z,15.37
2022-11-14T00:42:43.170Z,15.46
2022-11-14T00:45:10.483Z,15.49
2022-11-14T00:47:37.346Z,15.45
2022-11-14T00:50:05.038Z,15.36
2022-11-14T00:52:31.888Z,15.38
2022-11-14T00:54:58.571Z,15.43
2022-11-14T00:57:25.305Z,15.44
2022-11-14T00:59:53.695Z,15.50
2022-11-14T01:02:20.532Z,15.48
2022-11-14T01:04:47.219Z,15.55
2022-11-14T01:07:13.943Z,15.54
2022-11-14T01:09:40.809Z,15.58
2022-11-14T01:12:07.543Z,15.53
2022-11-14T01:14:34.232Z,15.50
2022-11-14T01:17:01.044Z,15.45
2022-11-14T01:19:29.030Z,15.47
2022-11-14T01:21:55.800Z,15.38
2022-11-14T01:24:22.620Z,15.40
2022-11-14T01:26:49.386Z,15.46
2022-11-14T01:29:16.159Z,15.45
2022-11-14T01:31:42.942Z,15.40
2022-11-14T01:34:10.041Z,15.50
2022-11-14T01:36:36.770Z,15.43
2022-11-14T01:39:04.112Z,15.49
2022-11-14T01:41:30.863Z,15.38
2022-11-14T01:43:57.616Z,15.17
2022-11-14T01:46:29.448Z,15.19
2022-11-14T01:49:01.343Z,15.22
2022-11-14T01:51:36.906Z,15.15
2022-11-14T01:54:08.715Z,15.11
2022-11-14T01:56:43.474Z,15.07
2022-11-14T01:59:14.449Z,14.93
2022-11-14T02:01:50.359Z,14.93
2022-11-14T02:04:27.881Z,14.89
2022-11-14T02:06:59.281Z,14.87
2022-11-14T02:09:28.119Z,14.85
2022-11-14T02:11:58.791Z,14.80
2022-11-14T02:14:27.355Z,14.77
2022-11-14T02:17:14.842Z,14.62
2022-11-14T02:19:46.236Z,14.62
2022-11-14T02:22:13.314Z,14.52
2022-11-14T02:24:40.112Z,14.39
2022-11-14T02:27:08.780Z,14.46
2022-11-14T02:29:36.064Z,14.51
2022-11-14T02:32:08.080Z,14.37
2022-11-14T02:34:37.354Z,14.39
2022-11-14T02:37:04.259Z,14.44
2022-11-14T02:39:31.079Z,14.48
2022-11-14T02:41:57.867Z,14.49
2022-11-14T02:44:24.654Z,14.50
2022-11-14T02:46:51.479Z,14.55
2022-11-14T02:49:18.372Z,14.53
2022-11-14T02:51:45.121Z,14.57
2022-11-14T02:54:11.867Z,14.71
2022-11-14T02:56:38.794Z,14.82
2022-11-14T02:59:05.493Z,14.86
2022-11-14T03:01:32.213Z,14.95
2022-11-14T03:03:59.108Z,14.87
2022-11-14T03:06:25.910Z,14.89
2022-11-14T03:08:52.620Z,14.80
2022-11-14T03:11:19.417Z,14.79
2022-11-14T03:13:46.106Z,14.71
2022-11-14T03:16:14.342Z,14.61
2022-11-14T03:18:41.435Z,14.59
2022-11-14T03:21:10.144Z,14.56
2022-11-14T03:23:37.410Z,14.56
2022-11-14T03:26:06.946Z,14.57
2022-11-14T03:28:33.854Z,14.48
2022-11-14T03:31:00.713Z,14.51
2022-11-14T03:33:27.711Z,14.51
2022-11-14T03:35:55.147Z,14.59
2022-11-14T03:38:24.645Z,14.60
2022-11-14T03:40:52.098Z,14.57
2022-11-14T03:43:20.644Z,14.66
2022-11-14T03:45:48.191Z,14.61
2022-11-14T03:48:15.229Z,14.69
2022-11-14T03:50:43.784Z,14.65
2022-11-14T03:53:11.482Z,14.74
2022-11-14T03:55:39.120Z,14.73
2022-11-14T03:58:05.974Z,14.76
2022-11-14T04:00:32.786Z,14.73
2022-11-14T04:02:59.590Z,14.80
2022-11-14T04:05:26.384Z,14.81
2022-11-14T04:07:53.140Z,14.78
2022-11-14T04:10:19.980Z,14.72
2022-11-14T04:12:53.851Z,14.68
2022-11-14T04:15:21.280Z,14.71
2022-11-14T04:17:49.584Z,14.70
2022-11-14T04:20:16.589Z,14.66
2022-11-14T04:22:43.481Z,14.68
2022-11-14T04:25:10.437Z,14.62
2022-11-14T04:27:37.210Z,14.61
2022-11-14T04:30:05.594Z,14.68
2022-11-14T04:32:32.326Z,14.63
2022-11-14T04:34:59.059Z,14.69
2022-11-14T04:37:25.836Z,14.67
2022-11-14T04:39:52.696Z,14.55
2022-11-14T04:42:19.482Z,14.65
2022-11-14T04:44:46.356Z,14.56
2022-11-14T04:47:13.082Z,14.52
2022-11-14T04:49:39.791Z,14.37
2022-11-14T04:52:06.667Z,14.35
2022-11-14T04:54:33.407Z,14.31
2022-11-14T04:57:00.177Z,14.26
2022-11-14T04:59:26.989Z,14.23
2022-11-14T05:01:53.800Z,14.16
2022-11-14T05:04:20.558Z,14.21
2022-11-14T05:06:47.419Z,14.16
2022-11-14T05:09:14.211Z,14.26
2022-11-14T05:11:41.063Z,14.19
2022-11-14T05:14:07.881Z,14.25
2022-11-14T05:16:34.570Z,14.37
2022-11-14T05:19:01.279Z,14.49
2022-11-14T05:21:28.110Z,14.49
2022-11-14T05:23:54.803Z,14.55
2022-11-14T05:26:21.518Z,14.58
2022-11-14T05:28:48.321Z,14.49
2022-11-14T05:31:18.850Z,14.61
2022-11-14T05:33:47.141Z,14.48
2022-11-14T05:36:16.222Z,14.68
2022-11-14T05:38:43.525Z,14.66
2022-11-14T05:41:12.872Z,14.57
2022-11-14T05:43:40.443Z,14.64
2022-11-14T05:46:10.193Z,14.67
2022-11-14T05:48:37.883Z,14.64
2022-11-14T05:51:06.501Z,14.61
2022-11-14T05:53:34.149Z,14.62
2022-11-14T05:56:04.740Z,14.46
2022-11-14T05:58:33.195Z,14.46
2022-11-14T06:01:11.945Z,14.29
2022-11-14T06:03:44.355Z,14.34
2022-11-14T06:06:13.968Z,14.31
2022-11-14T06:08:41.239Z,14.33
2022-11-14T06:11:14.463Z,14.32
2022-11-14T06:13:41.783Z,14.35
2022-11-14T06:16:12.008Z,14.33
2022-11-14T06:18:39.046Z,14.03
2022-11-14T06:21:11.464Z,14.21
2022-11-14T06:23:38.557Z,14.33
2022-11-14T06:26:07.825Z,14.29
2022-11-14T06:28:34.895Z,14.40
2022-11-14T06:31:04.442Z,14.42
2022-11-14T06:33:35.121Z,14.38
2022-11-14T06:36:05.861Z,14.33
2022-11-14T06:38:34.654Z,14.26
2022-11-14T06:41:17.711Z,14.05
2022-11-14T06:43:49.333Z,14.04
2022-11-14T06:46:19.056Z,13.98
2022-11-14T06:48:46.985Z,13.86
2022-11-14T06:51:15.121Z,13.86
2022-11-14T06:53:42.742Z,13.86
2022-11-14T06:56:11.920Z,13.72
2022-11-14T06:58:41.925Z,13.58
2022-11-14T07:01:13.314Z,13.55
2022-11-14T07:03:41.412Z,13.62
2022-11-14T07:06:09.829Z,13.58
2022-11-14T07:08:36.784Z,13.52
2022-11-14T07:11:09.001Z,13.52
2022-11-14T07:13:36.150Z,13.48
2022-11-14T07:16:03.845Z,13.40
2022-11-14T07:18:33.862Z,13.33
2022-11-14T07:21:02.579Z,12.98
2022-11-14T07:23:30.794Z,13.17
2022-11-14T07:26:07.030Z,13.13
2022-11-14T07:28:39.359Z,13.12
2022-11-14T07:31:12.587Z,13.12
2022-11-14T07:33:40.098Z,13.10
2022-11-14T07:36:07.805Z,13.08
2022-11-14T07:38:36.654Z,13.12
2022-11-14T07:41:06.957Z,13.08
2022-11-14T07:43:33.815Z,13.10
2022-11-14T07:46:13.474Z,13.13
2022-11-14T07:48:40.252Z,13.24
2022-11-14T07:51:10.351Z,13.30
2022-11-14T07:53:37.047Z,13.17
2022-11-14T07:56:11.370Z,13.18
2022-11-14T07:58:39.705Z,13.37
2022-11-14T08:01:09.868Z,13.45
2022-11-14T08:03:39.698Z,13.50
2022-11-14T08:06:12.740Z,13.45
2022-11-14T08:08:39.635Z,13.47
2022-11-14T08:11:07.142Z,13.44
2022-11-14T08:13:34.114Z,13.44
2022-11-14T08:16:12.917Z,13.36
2022-11-14T08:18:41.179Z,13.41
2022-11-14T08:21:08.429Z,13.49
2022-11-14T08:23:35.128Z,13.37
2022-11-14T08:26:02.051Z,13.47
2022-11-14T08:28:29.003Z,13.25
2022-11-14T08:31:01.351Z,13.50
2022-11-14T08:33:28.498Z,13.47
2022-11-14T08:35:55.677Z,13.50
2022-11-14T08:38:22.373Z,13.50
2022-11-14T08:40:49.167Z,13.77
2022-11-14T08:43:16.017Z,13.81
2022-11-14T08:45:42.765Z,13.81
2022-11-14T08:48:11.635Z,13.68
2022-11-14T08:50:38.315Z,13.66
2022-11-14T08:53:05.054Z,13.68
2022-11-14T08:55:31.865Z,13.64
2022-11-14T08:57:58.624Z,13.63
2022-11-14T09:00:25.397Z,13.73
2022-11-14T09:02:52.335Z,13.87
2022-11-14T09:05:19.083Z,13.91
2022-11-14T09:07:45.804Z,13.95
2022-11-14T09:10:12.559Z,13.86
2022-11-14T09:12:39.299Z,13.92
2022-11-14T09:15:06.756Z,13.91
2022-11-14T09:17:33.888Z,13.95
2022-11-14T09:20:00.701Z,14.20
2022-11-14T09:22:27.410Z,14.50
2022-11-14T09:24:54.329Z,14.61
2022-11-14T09:27:21.652Z,14.80
2022-11-14T09:29:48.358Z,14.91
2022-11-14T09:32:15.173Z,15.37
2022-11-14T09:34:44.954Z,16.33
2022-11-14T09:37:11.717Z,17.62
2022-11-14T09:39:40.897Z,18.12
2022-11-14T09:42:32.823Z,19.04
2022-11-14T09:45:06.529Z,19.84
2022-11-14T09:47:54.781Z,20.62
2022-11-14T09:50:46.650Z,21.02
2022-11-14T09:53:34.623Z,22.00
2022-11-14T09:56:01.848Z,21.69
2022-11-14T09:58:29.193Z,21.63
2022-11-14T10:01:09.727Z,21.83
2022-11-14T10:04:05.834Z,21.60
2022-11-14T10:07:04.548Z,21.21
2022-11-14T10:09:52.521Z,21.12
2022-11-14T10:12:34.637Z,21.57
2022-11-14T10:15:10.254Z,22.11
2022-11-14T10:17:45.345Z,22.35
2022-11-14T10:20:27.289Z,22.88
2022-11-14T10:23:22.105Z,23.38
2022-11-14T10:25:54.850Z,22.43
2022-11-14T10:28:40.061Z,21.80
2022-11-14T10:31:37.316Z,21.47
2022-11-14T10:34:29.248Z,21.36
2022-11-14T10:37:17.456Z,21.23
2022-11-14T10:39:44.111Z,20.96
2022-11-14T10:42:35.284Z,19.94
2022-11-14T10:45:10.940Z,19.25
2022-11-14T10:47:43.973Z,18.61
2022-11-14T10:50:22.136Z,18.12
2022-11-14T10:52:54.964Z,17.85
2022-11-14T10:55:32.048Z,17.85
2022-11-14T10:58:11.268Z,17.68
2022-11-14T11:00:38.041Z,17.65
2022-11-14T11:03:04.800Z,17.59
2022-11-14T11:05:31.596Z,17.53
2022-11-14T11:11:30.970Z,17.32
2022-11-14T11:14:01.119Z,17.31
2022-11-14T11:16:29.765Z,17.33
2022-11-14T11:19:35.215Z,17.16
2022-11-14T11:22:02.216Z,17.20
2022-11-14T11:24:34.178Z,17.21
2022-11-14T11:27:19.298Z,17.17
2022-11-14T11:29:46.999Z,17.24
2022-11-14T11:32:26.298Z,17.36
2022-11-14T11:34:54.290Z,17.56
2022-11-14T11:37:23.518Z,17.74
2022-11-14T11:39:55.409Z,17.79
2022-11-14T11:43:23.606Z,17.75
2022-11-14T11:45:22.108Z,17.83
2022-11-14T11:48:01.813Z,17.86
2022-11-14T11:50:30.269Z,17.84
2022-11-14T11:53:29.739Z,17.84
2022-11-14T11:56:04.693Z,18.05
2022-11-14T11:58:51.609Z,18.16
2022-11-14T12:01:19.925Z,18.71
2022-11-14T12:03:53.106Z,19.02
2022-11-14T12:06:27.613Z,19.07
2022-11-14T12:09:06.814Z,18.89
2022-11-14T12:11:38.034Z,18.72
2022-11-14T12:14:29.330Z,18.47
2022-11-14T12:17:08.232Z,18.43
2022-11-14T12:19:52.739Z,18.13
2022-11-14T12:22:38.435Z,18.29
2022-11-14T12:25:23.431Z,18.46
2022-11-14T12:28:27.201Z,18.63
2022-11-14T12:30:59.144Z,18.82
2022-11-14T12:33:30.173Z,19.30
2022-11-14T12:36:01.073Z,19.65
2022-11-14T12:38:40.756Z,19.72
2022-11-14T12:41:08.574Z,20.11
2022-11-14T12:43:39.149Z,19.88
2022-11-14T12:46:09.437Z,19.61
2022-11-14T12:48:41.798Z,19.27
2022-11-14T12:51:46.835Z,18.84
2022-11-14T12:54:43.718Z,18.74
2022-11-14T12:57:39.018Z,18.95
2022-11-14T13:00:09.115Z,19.33
2022-11-14T13:03:00.645Z,19.50
2022-11-14T13:05:46.826Z,19.40
2022-11-14T13:08:28.853Z,19.05
2022-11-14T13:10:55.576Z,18.84
2022-11-14T13:13:42.151Z,18.73
2022-11-14T13:16:43.077Z,18.61
2022-11-14T13:19:39.377Z,18.37
2022-11-14T13:22:12.257Z,18.24
2022-11-14T13:25:04.295Z,18.19
2022-11-14T13:28:05.215Z,18.15
2022-11-14T13:30:40.177Z,18.10
2022-11-14T13:33:07.728Z,18.11
2022-11-14T13:36:05.422Z,17.93
2022-11-14T13:38:48.965Z,17.94
2022-11-14T13:41:54.203Z,17.83
2022-11-14T13:44:53.588Z,17.98
2022-11-14T13:47:47.018Z,18.02
2022-11-14T13:50:25.141Z,18.08
2022-11-14T13:52:52.421Z,18.11
2022-11-14T13:55:31.275Z,18.08
2022-11-14T13:58:29.853Z,17.95
2022-11-14T14:01:41.033Z,17.91
2022-11-14T14:04:29.120Z,18.06
2022-11-14T14:07:01.666Z,18.22
2022-11-14T14:10:01.729Z,18.21
2022-11-14T14:12:51.226Z,17.96
2022-11-14T14:15:29.854Z,18.21
2022-11-14T14:18:16.720Z,18.28
2022-11-14T14:21:11.816Z,18.20
2022-11-14T14:24:26.175Z,18.08
2022-11-14T14:26:55.880Z,18.13
2022-11-14T14:29:38.537Z,18.15
2022-11-14T14:32:20.117Z,18.06
2022-11-14T14:34:46.840Z,17.95
2022-11-14T14:37:19.141Z,17.87
2022-11-14T14:40:02.624Z,17.83
2022-11-14T14:42:40.978Z,17.75
2022-11-14T14:45:20.519Z,17.80
2022-11-14T14:47:50.124Z,17.80
2022-11-14T14:50:21.793Z,17.89
2022-11-14T14:53:02.420Z,18.03
2022-11-14T14:55:32.909Z,18.09
2022-11-14T14:58:26.707Z,17.96
2022-11-14T15:01:09.903Z,17.91
2022-11-14T15:03:39.966Z,17.82
2022-11-14T15:06:18.061Z,17.44
2022-11-14T15:08:46.185Z,17.56
2022-11-14T15:11:15.028Z,17.60
2022-11-14T15:13:43.343Z,17.46
2022-11-14T15:16:11.272Z,17.39
2022-11-14T15:18:38.652Z,17.29
2022-11-14T15:21:09.690Z,17.17
2022-11-14T15:23:39.763Z,17.11
2022-11-14T15:26:12.859Z,16.77
2022-11-14T15:28:39.623Z,16.94
2022-11-14T15:31:06.907Z,16.95
2022-11-14T15:33:35.534Z,16.94
2022-11-14T15:36:14.983Z,16.88
2022-11-14T15:39:02.690Z,16.80
2022-11-14T15:41:33.070Z,16.93
2022-11-14T15:44:03.433Z,17.00
2022-11-14T15:46:46.225Z,16.98
2022-11-14T15:49:25.667Z,16.98
2022-11-14T15:51:56.559Z,17.00
2022-11-14T15:54:34.974Z,16.94
2022-11-14T15:57:11.932Z,17.00
2022-11-14T15:59:39.061Z,17.00
2022-11-14T16:02:22.302Z,16.93
2022-11-14T16:04:51.997Z,17.00
2022-11-14T16:07:19.941Z,16.99
2022-11-14T16:09:46.861Z,17.00
2022-11-14T16:12:13.990Z,16.94
2022-11-14T16:14:41.009Z,16.97
2022-11-14T16:17:13.650Z,16.93
2022-11-14T16:19:40.629Z,16.99
2022-11-14T16:22:13.284Z,16.88
2022-11-14T16:24:40.219Z,16.88
2022-11-14T16:27:07.046Z,16.96
2022-11-14T16:29:33.837Z,16.94
2022-11-14T16:32:00.739Z,16.90
2022-11-14T16:34:27.691Z,16.89
2022-11-14T16:37:00.055Z,16.94
2022-11-14T16:39:27.644Z,16.99
2022-11-14T16:42:00.645Z,17.03
2022-11-14T16:44:27.633Z,16.93
2022-11-14T16:46:55.484Z,16.97
2022-11-14T16:49:22.231Z,16.84
2022-11-14T16:51:50.768Z,16.88
2022-11-14T16:54:19.719Z,16.81
2022-11-14T16:56:47.414Z,16.63
2022-11-14T16:59:14.676Z,16.66
2022-11-14T17:01:42.126Z,16.75
2022-11-14T17:04:08.911Z,16.79
2022-11-14T17:06:35.751Z,16.86
2022-11-14T17:09:02.619Z,16.87
2022-11-14T17:11:29.522Z,16.82
2022-11-14T17:13:57.147Z,16.87
2022-11-14T17:16:24.568Z,16.80
2022-11-14T17:18:54.249Z,16.59
2022-11-14T17:21:22.036Z,16.29
2022-11-14T17:23:57.043Z,15.87
2022-11-14T17:26:24.177Z,15.57
2022-11-14T17:28:50.964Z,15.46
2022-11-14T17:31:17.917Z,15.26
2022-11-14T17:33:54.093Z,15.30
2022-11-14T17:36:23.867Z,15.30
2022-11-14T17:38:50.681Z,15.27
2022-11-14T17:41:18.401Z,15.36
2022-11-14T17:43:45.349Z,15.35
2022-11-14T17:46:15.941Z,15.46
2022-11-14T17:48:44.132Z,15.49
2022-11-14T17:51:13.218Z,15.44
2022-11-14T17:53:40.306Z,15.49
2022-11-14T17:56:08.687Z,15.38
2022-11-14T17:58:35.572Z,15.50
2022-11-14T18:01:02.376Z,15.54
2022-11-14T18:03:29.942Z,15.49
2022-11-14T18:06:10.635Z,15.55
2022-11-14T18:08:38.137Z,15.62
2022-11-14T18:11:07.289Z,15.62
2022-11-14T18:13:34.789Z,15.65
2022-11-14T18:16:03.374Z,15.61
2022-11-14T18:18:34.904Z,15.60
2022-11-14T18:21:14.332Z,15.62
2022-11-14T18:23:41.290Z,15.67
2022-11-14T18:26:20.135Z,15.67
2022-11-14T18:28:46.832Z,15.78
2022-11-14T18:31:14.006Z,15.73
2022-11-14T18:33:41.801Z,15.81
2022-11-14T18:36:11.747Z,15.76
2022-11-14T18:38:38.580Z,15.74
2022-11-14T18:41:09.833Z,15.79
2022-11-14T18:43:36.795Z,15.78
2022-11-14T18:46:12.236Z,15.78
2022-11-14T18:48:40.357Z,15.78
2022-11-14T18:51:11.759Z,15.83
2022-11-14T18:53:38.609Z,15.84
2022-11-14T18:56:07.174Z,15.86
2022-11-14T18:58:34.100Z,15.67
2022-11-14T19:01:40.658Z,15.81
2022-11-14T19:04:10.070Z,15.78
2022-11-14T19:06:39.101Z,15.83
2022-11-14T19:09:11.320Z,15.84
2022-11-14T19:11:57.190Z,15.83
2022-11-14T19:14:24.008Z,15.71
2022-11-14T19:16:50.724Z,15.69
2022-11-14T19:19:17.495Z,15.55
2022-11-14T19:21:44.406Z,15.53
2022-11-14T19:24:11.201Z,15.44
2022-11-14T19:26:37.986Z,15.46
2022-11-14T19:29:07.833Z,15.39
2022-11-14T19:31:34.554Z,15.35
2022-11-14T19:34:01.419Z,15.33
2022-11-14T19:36:57.706Z,15.29
2022-11-14T19:39:15.456Z,15.33
2022-11-14T19:41:42.238Z,15.29
2022-11-14T19:44:09.013Z,15.34
2022-11-14T19:46:36.922Z,15.33
2022-11-14T19:49:04.476Z,15.31
2022-11-14T19:51:32.953Z,15.34
2022-11-14T19:54:03.100Z,15.49
2022-11-14T19:56:29.785Z,15.28
2022-11-14T19:58:57.359Z,15.49
2022-11-14T20:01:28.557Z,15.48
2022-11-14T20:04:00.912Z,15.60
2022-11-14T20:06:34.286Z,15.69
2022-11-14T20:09:05.574Z,15.71
2022-11-14T20:11:32.995Z,15.66
2022-11-14T20:14:01.279Z,15.69
2022-11-14T20:16:30.934Z,15.72
2022-11-14T20:19:00.671Z,15.76
2022-11-14T20:21:30.283Z,15.89
2022-11-14T20:23:57.212Z,15.92
2022-11-14T20:26:24.186Z,15.96
2022-11-14T20:28:52.967Z,16.00
2022-11-14T20:31:24.866Z,15.97
2022-11-14T20:33:53.468Z,15.96
2022-11-14T20:36:24.063Z,15.94
2022-11-14T20:38:52.237Z,15.87
2022-11-14T20:41:20.070Z,15.91
2022-11-14T20:43:47.246Z,15.90
2022-11-14T20:46:16.772Z,15.90
2022-11-14T20:48:44.318Z,15.88
2022-11-14T20:51:14.406Z,15.91
2022-11-14T20:53:41.430Z,15.62
2022-11-14T20:56:09.202Z,15.79
2022-11-14T20:58:36.445Z,15.77
2022-11-14T21:01:04.117Z,15.70
2022-11-14T21:03:31.450Z,15.75
2022-11-14T21:06:01.400Z,15.80
2022-11-14T21:08:29.298Z,15.82
2022-11-14T21:11:02.335Z,15.74
2022-11-14T21:13:48.109Z,15.71
2022-11-14T21:16:19.349Z,15.66
2022-11-14T21:18:48.105Z,15.68
2022-11-14T21:21:16.791Z,15.70
2022-11-14T21:23:46.579Z,15.72
2022-11-14T21:26:23.949Z,15.71
2022-11-14T21:28:54.083Z,15.80
2022-11-14T21:31:22.659Z,15.52
2022-11-14T21:33:51.259Z,15.71
2022-11-14T21:39:06.815Z,15.69
2022-11-14T21:41:33.685Z,15.65
2022-11-14T21:44:02.958Z,15.63
2022-11-14T21:46:29.989Z,15.55
2022-11-14T21:48:57.561Z,15.56
2022-11-14T21:51:29.162Z,15.41
2022-11-14T21:54:02.971Z,15.45
2022-11-14T21:56:31.957Z,15.51
2022-11-14T21:59:15.766Z,15.50
2022-11-14T22:02:07.177Z,15.50
2022-11-14T22:04:34.855Z,15.44
2022-11-14T22:07:03.103Z,15.48
2022-11-14T22:09:30.510Z,15.25
2022-11-14T22:11:57.405Z,15.16
2022-11-14T22:14:24.471Z,15.15
2022-11-14T22:16:51.310Z,15.21
2022-11-14T22:19:19.111Z,15.15
2022-11-14T22:21:46.041Z,15.09
2022-11-14T22:24:12.796Z,15.13
2022-11-14T22:26:40.674Z,15.15
2022-11-14T22:29:08.469Z,15.22
2022-11-14T22:31:35.350Z,15.21
2022-11-14T22:34:02.364Z,15.20
2022-11-14T22:36:29.484Z,15.23
2022-11-14T22:38:57.118Z,15.21
2022-11-14T22:41:32.748Z,15.21
2022-11-14T22:44:00.913Z,15.09
2022-11-14T22:46:27.854Z,15.14
2022-11-14T22:48:55.154Z,15.16
2022-11-14T22:51:24.162Z,15.15
2022-11-14T22:54:01.139Z,15.23
2022-11-14T22:56:29.494Z,15.25
2022-11-14T22:58:58.882Z,15.30
2022-11-14T23:01:27.968Z,15.32
2022-11-14T23:03:57.267Z,15.29
2022-11-14T23:06:25.022Z,15.41
2022-11-14T23:08:52.575Z,15.41
2022-11-14T23:11:22.921Z,15.43
2022-11-14T23:13:52.394Z,15.47
2022-11-14T23:16:24.906Z,15.48
2022-11-14T23:18:54.916Z,15.50
2022-11-14T23:21:25.024Z,15.56
2022-11-14T23:23:55.372Z,15.36
2022-11-14T23:26:23.175Z,15.51
2022-11-14T23:28:49.966Z,15.61
2022-11-14T23:31:19.568Z,15.70
2022-11-14T23:33:47.569Z,15.61
2022-11-14T23:36:14.578Z,15.57
2022-11-14T23:38:42.327Z,15.53
2022-11-14T23:41:18.562Z,15.29
2022-11-14T23:43:46.116Z,15.43
2022-11-14T23:46:13.675Z,15.44
2022-11-14T23:48:40.652Z,15.34
2022-11-14T23:51:07.716Z,15.40
2022-11-14T23:53:34.628Z,15.33
2022-11-14T23:56:02.413Z,15.44
2022-11-14T23:58:30.539Z,15.50
